createdAt,value
2018-02-18T00:02:22.562Z,39.30
2018-02-18T00:04:50.016Z,41.10
2018-02-18T00:07:17.489Z,50.53
2018-02-18T00:09:44.944Z,54.07
2018-02-18T00:12:12.409Z,50.23
2018-02-18T00:14:49.776Z,48.07
2018-02-18T00:17:17.248Z,35.83
2018-02-18T00:19:44.720Z,38.97
2018-02-18T00:22:15.987Z,45.17
2018-02-18T00:24:43.438Z,41.83
2018-02-18T00:27:10.902Z,39.50
2018-02-18T00:29:38.356Z,40.63
2018-02-18T00:32:05.821Z,40.40
2018-02-18T00:34:33.284Z,40.33
2018-02-18T00:37:00.733Z,35.03
2018-02-18T00:39:28.201Z,33.60
2018-02-18T00:41:55.666Z,33.00
2018-02-18T00:44:23.181Z,36.93
2018-02-18T00:46:50.593Z,40.43
2018-02-18T00:49:18.064Z,36.47
2018-02-18T00:51:45.516Z,36.50
2018-02-18T00:54:12.983Z,37.37
2018-02-18T00:56:40.431Z,32.27
2018-02-18T00:59:07.904Z,34.83
2018-02-18T01:01:35.368Z,36.37
2018-02-18T01:04:02.844Z,36.03
2018-02-18T01:06:30.312Z,33.57
2018-02-18T01:08:57.820Z,32.57
2018-02-18T01:11:25.270Z,32.80
2018-02-18T01:13:53.497Z,34.70
2018-02-18T01:16:20.990Z,34.70
2018-02-18T01:18:48.452Z,36.57
2018-02-18T01:21:15.900Z,36.67
2018-02-18T01:23:43.372Z,35.30
2018-02-18T01:26:10.825Z,33.50
2018-02-18T01:28:38.303Z,32.93
2018-02-18T01:31:05.761Z,30.60
2018-02-18T01:33:33.228Z,33.87
2018-02-18T01:36:00.688Z,35.67
2018-02-18T01:38:28.137Z,36.13
2018-02-18T01:40:55.614Z,37.97
2018-02-18T01:43:23.081Z,36.27
2018-02-18T01:45:50.546Z,36.23
2018-02-18T01:48:18.015Z,36.73
2018-02-18T01:50:45.480Z,37.03
2018-02-18T01:53:13.701Z,37.27
2018-02-18T01:55:41.176Z,36.60
2018-02-18T01:58:08.642Z,36.27
2018-02-18T02:00:36.112Z,39.27
2018-02-18T02:03:03.556Z,34.93
2018-02-18T02:05:31.019Z,36.27
2018-02-18T02:07:58.481Z,39.07
2018-02-18T02:10:25.946Z,39.17
2018-02-18T02:12:53.409Z,38.27
2018-02-18T02:15:20.881Z,38.83
2018-02-18T02:17:48.341Z,39.57
2018-02-18T02:20:15.833Z,39.37
2018-02-18T02:22:43.303Z,42.50
2018-02-18T02:25:10.769Z,40.10
2018-02-18T02:27:38.242Z,41.23
2018-02-18T02:30:06.469Z,41.03
2018-02-18T02:32:33.965Z,40.00
2018-02-18T02:35:01.431Z,39.47
2018-02-18T02:37:28.888Z,38.60
2018-02-18T02:39:56.359Z,37.73
2018-02-18T02:42:23.828Z,42.03
2018-02-18T02:44:52.059Z,40.33
2018-02-18T02:47:19.642Z,36.83
2018-02-18T02:49:47.097Z,36.10
2018-02-18T02:52:14.588Z,40.27
2018-02-18T02:54:42.006Z,35.60
2018-02-18T02:57:09.551Z,35.47
2018-02-18T02:59:37.003Z,41.17
2018-02-18T03:02:04.466Z,41.77
2018-02-18T03:04:31.921Z,48.10
2018-02-18T03:06:59.382Z,45.33
2018-02-18T03:09:26.846Z,47.27
2018-02-18T03:11:54.300Z,39.27
2018-02-18T03:14:21.766Z,39.23
2018-02-18T03:16:49.228Z,41.17
2018-02-18T03:19:16.677Z,48.90
2018-02-18T03:21:44.140Z,46.60
2018-02-18T03:24:11.595Z,48.63
2018-02-18T03:26:39.833Z,52.53
2018-02-18T03:29:08.044Z,49.17
2018-02-18T03:31:36.273Z,52.30
2018-02-18T03:34:03.721Z,50.63
2018-02-18T03:36:31.183Z,54.93
2018-02-18T03:38:58.654Z,47.90
2018-02-18T03:41:26.111Z,49.33
2018-02-18T03:43:53.566Z,40.70
2018-02-18T03:46:21.013Z,48.57
2018-02-18T03:48:48.467Z,44.00
2018-02-18T03:51:16.699Z,46.93
2018-02-18T03:53:44.150Z,41.80
2018-02-18T03:56:11.615Z,42.87
2018-02-18T03:58:39.063Z,41.67
2018-02-18T04:01:06.544Z,48.93
2018-02-18T04:03:33.999Z,45.67
2018-02-18T04:06:01.458Z,49.07
2018-02-18T04:08:28.928Z,42.80
2018-02-18T04:10:56.405Z,37.00
2018-02-18T04:13:23.860Z,40.77
2018-02-18T04:15:51.316Z,41.93
2018-02-18T04:18:18.792Z,42.17
2018-02-18T04:20:46.241Z,41.27
2018-02-18T04:23:13.710Z,39.73
2018-02-18T04:25:41.153Z,43.63
2018-02-18T04:28:08.616Z,41.90
2018-02-18T04:30:36.066Z,49.43
2018-02-18T04:33:03.528Z,43.47
2018-02-18T04:35:30.978Z,43.43
2018-02-18T04:37:58.437Z,38.13
2018-02-18T04:40:26.649Z,37.87
2018-02-18T04:42:54.104Z,41.30
2018-02-18T04:45:21.552Z,39.60
2018-02-18T04:47:49.006Z,40.13
2018-02-18T04:50:16.469Z,40.63
2018-02-18T04:52:43.933Z,38.30
2018-02-18T04:55:11.404Z,38.27
2018-02-18T04:57:38.869Z,42.53
2018-02-18T05:00:06.327Z,40.93
2018-02-18T05:02:33.794Z,40.20
2018-02-18T05:05:01.243Z,40.33
2018-02-18T05:07:29.465Z,44.13
2018-02-18T05:09:56.920Z,36.43
2018-02-18T05:12:24.372Z,32.67
2018-02-18T05:14:51.841Z,32.53
2018-02-18T05:17:19.288Z,40.90
2018-02-18T05:19:46.752Z,41.93
2018-02-18T05:22:14.209Z,44.23
2018-02-18T05:24:41.672Z,38.27
2018-02-18T05:27:09.123Z,43.53
2018-02-18T05:29:36.588Z,46.93
2018-02-18T05:32:04.047Z,41.33
2018-02-18T05:34:32.324Z,40.73
2018-02-18T05:37:00.547Z,36.27
2018-02-18T05:39:28.004Z,41.83
2018-02-18T05:41:55.462Z,36.50
2018-02-18T05:44:22.935Z,40.07
2018-02-18T05:46:50.385Z,45.27
2018-02-18T05:49:17.847Z,36.13
2018-02-18T05:51:45.299Z,32.50
2018-02-18T05:54:12.761Z,36.83
2018-02-18T05:56:40.218Z,34.53
2018-02-18T05:59:07.680Z,38.47
2018-02-18T06:01:35.134Z,38.20
2018-02-18T06:04:02.592Z,40.20
2018-02-18T06:06:30.041Z,33.53
2018-02-18T06:08:58.275Z,30.30
2018-02-18T06:11:25.735Z,26.20
2018-02-18T06:13:53.197Z,27.70
2018-02-18T06:16:20.637Z,28.63
2018-02-18T06:18:48.121Z,23.33
2018-02-18T06:21:15.571Z,23.90
2018-02-18T06:23:43.041Z,24.17
2018-02-18T06:26:10.487Z,24.23
2018-02-18T06:28:37.956Z,27.67
2018-02-18T06:31:05.508Z,24.30
2018-02-18T06:33:34.086Z,24.90
2018-02-18T06:36:01.547Z,27.60
2018-02-18T06:38:29.004Z,29.37
2018-02-18T06:40:58.069Z,48.37
2018-02-18T06:43:25.509Z,31.53
2018-02-18T06:45:53.737Z,30.27
2018-02-18T06:48:21.965Z,29.30
2018-02-18T06:50:49.417Z,25.93
2018-02-18T06:53:16.873Z,28.57
2018-02-18T06:55:44.340Z,27.80
2018-02-18T06:58:11.792Z,30.83
2018-02-18T07:00:39.256Z,28.10
2018-02-18T07:03:06.700Z,31.40
2018-02-18T07:05:34.166Z,30.57
2018-02-18T07:08:01.617Z,29.40
2018-02-18T07:10:31.054Z,29.70
2018-02-18T07:12:58.489Z,27.80
2018-02-18T07:15:26.819Z,25.60
2018-02-18T07:17:54.276Z,27.77
2018-02-18T07:20:21.733Z,25.90
2018-02-18T07:22:49.181Z,25.37
2018-02-18T07:25:17.497Z,26.90
2018-02-18T07:27:44.948Z,29.80
2018-02-18T07:30:12.422Z,28.07
2018-02-18T07:32:39.874Z,25.90
2018-02-18T07:35:07.346Z,27.23
2018-02-18T07:37:34.792Z,29.97
2018-02-18T07:40:02.248Z,30.27
2018-02-18T07:42:29.705Z,26.90
2018-02-18T07:44:57.150Z,25.13
2018-02-18T07:47:24.610Z,30.07
2018-02-18T07:49:52.057Z,27.23
2018-02-18T07:52:20.288Z,31.80
2018-02-18T07:54:47.732Z,32.20
2018-02-18T07:57:15.193Z,31.37
2018-02-18T08:02:17.413Z,28.23
2018-02-18T08:04:44.861Z,28.17
2018-02-18T08:07:12.324Z,32.30
2018-02-18T08:09:39.785Z,35.93
2018-02-18T08:12:07.254Z,31.43
2018-02-18T08:14:34.706Z,32.13
2018-02-18T08:17:02.170Z,29.57
2018-02-18T08:19:29.618Z,28.47
2018-02-18T08:21:57.078Z,26.70
2018-02-18T08:24:24.540Z,26.87
2018-02-18T08:26:52.005Z,29.50
2018-02-18T08:29:19.454Z,29.53
2018-02-18T08:31:46.906Z,24.83
2018-02-18T08:34:15.124Z,28.23
2018-02-18T08:36:42.599Z,24.47
2018-02-18T08:39:10.045Z,26.23
2018-02-18T08:41:37.506Z,24.70
2018-02-18T08:44:04.952Z,22.50
2018-02-18T08:46:32.415Z,25.20
2018-02-18T08:48:59.865Z,26.73
2018-02-18T08:51:27.319Z,24.73
2018-02-18T08:53:55.545Z,23.90
2018-02-18T08:56:23.023Z,24.17
2018-02-18T08:58:50.481Z,26.00
2018-02-18T09:01:17.942Z,23.10
2018-02-18T09:03:45.401Z,24.43
2018-02-18T09:06:12.853Z,24.67
2018-02-18T09:08:40.396Z,24.50
2018-02-18T09:11:07.842Z,26.57
2018-02-18T09:13:35.303Z,22.50
2018-02-18T09:16:03.524Z,24.20
2018-02-18T09:18:30.978Z,23.60
2018-02-18T09:20:58.437Z,22.50
2018-02-18T09:23:25.900Z,21.77
2018-02-18T09:25:53.349Z,20.47
2018-02-18T09:28:20.809Z,23.80
2018-02-18T09:30:48.263Z,22.77
2018-02-18T09:33:15.716Z,23.43
2018-02-18T09:35:43.941Z,22.93
2018-02-18T09:38:11.396Z,25.40
2018-02-18T09:40:38.862Z,25.07
2018-02-18T09:43:06.328Z,21.80
2018-02-18T09:45:33.792Z,20.10
2018-02-18T09:48:01.242Z,22.77
2018-02-18T09:50:28.693Z,21.53
2018-02-18T09:52:56.149Z,22.80
2018-02-18T09:55:23.766Z,22.53
2018-02-18T09:57:51.211Z,20.70
2018-02-18T10:00:18.673Z,21.17
2018-02-18T10:02:46.124Z,20.77
2018-02-18T10:05:14.357Z,20.87
2018-02-18T10:07:42.571Z,21.53
2018-02-18T10:10:10.046Z,20.93
2018-02-18T10:12:37.499Z,22.40
2018-02-18T10:15:04.959Z,20.80
2018-02-18T10:17:32.414Z,21.10
2018-02-18T10:19:59.888Z,21.00
2018-02-18T10:22:27.330Z,18.57
2018-02-18T10:24:54.774Z,20.90
2018-02-18T10:27:22.994Z,18.50
2018-02-18T10:29:50.440Z,19.40
2018-02-18T10:32:17.904Z,18.83
2018-02-18T10:34:45.353Z,20.77
2018-02-18T10:37:12.828Z,21.63
2018-02-18T10:39:40.288Z,20.20
2018-02-18T10:42:07.734Z,20.40
2018-02-18T10:44:35.965Z,19.90
2018-02-18T10:47:03.449Z,20.37
2018-02-18T10:49:30.933Z,19.63
2018-02-18T10:51:59.155Z,21.53
2018-02-18T10:54:26.598Z,20.70
2018-02-18T10:56:54.086Z,21.47
2018-02-18T10:59:22.301Z,19.63
2018-02-18T11:01:49.771Z,23.60
2018-02-18T11:04:17.985Z,22.77
2018-02-18T11:06:45.452Z,21.73
2018-02-18T11:09:12.898Z,23.43
2018-02-18T11:11:40.354Z,21.87
2018-02-18T11:14:08.568Z,21.37
2018-02-18T11:16:36.017Z,22.60
2018-02-18T11:19:03.473Z,21.23
2018-02-18T11:21:30.943Z,21.23
2018-02-18T11:23:58.396Z,22.87
2018-02-18T11:26:25.858Z,24.83
2018-02-18T11:28:53.309Z,22.63
2018-02-18T11:31:20.764Z,22.67
2018-02-18T11:33:48.999Z,22.23
2018-02-18T11:36:17.232Z,20.80
2018-02-18T11:38:45.441Z,21.80
2018-02-18T11:41:12.899Z,19.00
2018-02-18T11:43:40.349Z,19.03
2018-02-18T11:46:07.814Z,21.83
2018-02-18T11:48:35.274Z,23.50
2018-02-18T11:51:02.734Z,21.70
2018-02-18T11:53:30.186Z,22.03
2018-02-18T11:55:57.649Z,22.60
2018-02-18T11:58:25.105Z,20.83
2018-02-18T12:00:53.336Z,21.10
2018-02-18T12:03:20.805Z,18.90
2018-02-18T12:05:48.294Z,19.43
2018-02-18T12:08:15.740Z,19.17
2018-02-18T12:10:43.210Z,17.77
2018-02-18T12:13:10.686Z,19.47
2018-02-18T12:15:38.125Z,19.37
2018-02-18T12:18:05.593Z,19.93
2018-02-18T12:20:33.041Z,19.87
2018-02-18T12:23:00.501Z,19.47
2018-02-18T12:25:27.960Z,18.90
2018-02-18T12:27:55.425Z,19.50
2018-02-18T12:30:22.880Z,17.77
2018-02-18T12:32:50.351Z,16.57
2018-02-18T12:35:17.799Z,18.40
2018-02-18T12:37:45.269Z,17.47
2018-02-18T12:40:12.708Z,20.30
2018-02-18T12:42:40.177Z,18.67
2018-02-18T12:45:08.791Z,18.10
2018-02-18T12:47:36.261Z,15.53
2018-02-18T12:50:03.715Z,17.43
2018-02-18T12:52:31.177Z,24.57
2018-02-18T12:54:58.636Z,20.83
2018-02-18T12:57:26.108Z,20.53
2018-02-18T12:59:53.548Z,18.27
2018-02-18T13:02:21.008Z,17.90
2018-02-18T13:04:48.466Z,20.43
2018-02-18T13:07:15.933Z,19.97
2018-02-18T13:09:43.385Z,21.17
2018-02-18T13:12:10.837Z,21.27
2018-02-18T13:14:38.290Z,21.10
2018-02-18T13:17:05.749Z,20.07
2018-02-18T13:19:33.202Z,19.77
2018-02-18T13:22:01.818Z,19.07
2018-02-18T13:24:29.280Z,21.00
2018-02-18T13:26:56.760Z,21.97
2018-02-18T13:29:24.186Z,21.03
2018-02-18T13:31:51.639Z,19.97
2018-02-18T13:34:19.868Z,22.03
2018-02-18T13:36:47.316Z,23.30
2018-02-18T13:39:14.777Z,20.60
2018-02-18T13:41:42.225Z,20.57
2018-02-18T13:44:09.691Z,19.53
2018-02-18T13:46:38.372Z,22.23
2018-02-18T13:49:06.585Z,20.80
2018-02-18T13:51:34.237Z,21.77
2018-02-18T13:54:01.963Z,23.33
2018-02-18T13:56:31.565Z,20.93
2018-02-18T13:58:59.209Z,22.60
2018-02-18T14:01:29.512Z,22.17
2018-02-18T14:03:57.806Z,24.63
2018-02-18T14:06:25.266Z,23.37
2018-02-18T14:08:52.726Z,23.67
2018-02-18T14:11:21.849Z,24.53
2018-02-18T14:13:49.438Z,24.63
2018-02-18T14:16:16.883Z,25.17
2018-02-18T14:18:44.404Z,26.87
2018-02-18T14:21:12.093Z,25.97
2018-02-18T14:23:39.612Z,25.90
2018-02-18T14:26:07.078Z,26.60
2018-02-18T14:28:35.589Z,26.13
2018-02-18T14:31:03.056Z,27.77
2018-02-18T14:33:30.505Z,27.73
2018-02-18T14:35:57.971Z,28.30
2018-02-18T14:38:25.417Z,29.47
2018-02-18T14:40:53.964Z,26.50
2018-02-18T14:43:33.293Z,26.50
2018-02-18T14:46:12.631Z,30.47
2018-02-18T14:48:52.041Z,37.43
2018-02-18T14:51:31.315Z,30.07
2018-02-18T14:54:11.482Z,30.03
2018-02-18T14:59:41.350Z,31.83
2018-02-18T15:02:08.844Z,33.10
2018-02-18T15:04:36.266Z,34.23
2018-02-18T15:07:03.717Z,30.83
2018-02-18T15:09:31.169Z,31.50
2018-02-18T15:11:58.631Z,30.97
2018-02-18T15:14:26.082Z,30.70
2018-02-18T15:16:53.531Z,31.67
2018-02-18T15:19:21.768Z,34.97
2018-02-18T15:21:49.218Z,32.10
2018-02-18T15:24:16.682Z,31.87
2018-02-18T15:26:44.145Z,34.67
2018-02-18T15:29:11.622Z,29.70
2018-02-18T15:31:39.066Z,30.93
2018-02-18T15:34:06.516Z,30.80
2018-02-18T15:36:33.973Z,34.30
2018-02-18T15:39:01.417Z,32.93
2018-02-18T15:41:28.904Z,36.10
2018-02-18T15:43:56.369Z,33.53
2018-02-18T15:46:23.817Z,33.67
2018-02-18T15:48:51.276Z,33.57
2018-02-18T15:51:18.729Z,32.20
2018-02-18T15:53:46.184Z,35.10
2018-02-18T15:56:14.408Z,33.77
2018-02-18T15:58:41.868Z,32.73
2018-02-18T16:01:09.346Z,35.67
2018-02-18T16:03:36.796Z,33.00
2018-02-18T16:06:04.261Z,34.03
2018-02-18T16:08:31.717Z,33.40
2018-02-18T16:10:59.190Z,34.07
2018-02-18T16:13:26.639Z,35.57
2018-02-18T16:15:54.108Z,36.77
2018-02-18T16:18:21.557Z,36.33
2018-02-18T16:20:49.022Z,38.13
2018-02-18T16:23:16.468Z,39.77
2018-02-18T16:25:43.933Z,37.33
2018-02-18T16:28:11.386Z,38.60
2018-02-18T16:30:38.849Z,38.90
2018-02-18T16:33:06.304Z,37.10
2018-02-18T16:35:34.523Z,36.53
2018-02-18T16:38:01.968Z,38.60
2018-02-18T16:40:29.437Z,39.47
2018-02-18T16:42:56.902Z,38.00
2018-02-18T16:45:24.348Z,39.50
2018-02-18T16:47:51.814Z,40.97
2018-02-18T16:50:19.252Z,40.20
2018-02-18T16:52:47.477Z,37.23
2018-02-18T16:55:14.919Z,38.03
2018-02-18T16:57:42.382Z,37.27
2018-02-18T17:00:09.873Z,35.70
2018-02-18T17:02:37.339Z,41.13
2018-02-18T17:05:05.552Z,36.23
2018-02-18T17:07:33.805Z,37.13
2018-02-18T17:10:01.252Z,37.47
2018-02-18T17:12:28.713Z,38.57
2018-02-18T17:14:56.160Z,41.53
2018-02-18T17:17:23.632Z,39.33
2018-02-18T17:19:51.085Z,41.07
2018-02-18T17:22:18.545Z,43.10
2018-02-18T17:24:46.002Z,40.07
2018-02-18T17:27:13.470Z,139.87
2018-02-18T17:29:40.949Z,42.43
2018-02-18T17:32:08.397Z,40.43
2018-02-18T17:34:35.845Z,40.80
2018-02-18T17:37:03.309Z,39.00
2018-02-18T17:39:30.763Z,39.50
2018-02-18T17:41:58.213Z,39.90
2018-02-18T17:44:26.425Z,40.63
2018-02-18T17:46:53.885Z,41.60
2018-02-18T17:49:21.350Z,38.33
2018-02-18T17:51:49.709Z,39.80
2018-02-18T17:54:17.168Z,39.63
2018-02-18T17:56:44.622Z,38.57
2018-02-18T17:59:12.845Z,37.53
2018-02-18T18:01:40.309Z,40.43
2018-02-18T18:04:07.778Z,44.80
2018-02-18T18:06:35.231Z,46.47
2018-02-18T18:09:02.696Z,46.23
2018-02-18T18:11:30.159Z,44.23
2018-02-18T18:13:57.608Z,43.60
2018-02-18T18:16:25.061Z,41.53
2018-02-18T18:18:52.530Z,36.83
2018-02-18T18:21:19.985Z,41.27
2018-02-18T18:23:47.472Z,40.43
2018-02-18T18:26:14.916Z,40.83
2018-02-18T18:28:43.139Z,42.67
2018-02-18T18:31:10.589Z,40.90
2018-02-18T18:33:38.048Z,39.63
2018-02-18T18:36:05.501Z,40.83
2018-02-18T18:38:32.962Z,45.73
2018-02-18T18:41:00.419Z,42.63
2018-02-18T18:43:27.868Z,41.10
2018-02-18T18:45:55.317Z,40.03
2018-02-18T18:48:22.760Z,40.00
2018-02-18T18:50:50.988Z,39.30
2018-02-18T18:53:19.204Z,40.30
2018-02-18T18:55:46.663Z,38.47
2018-02-18T18:58:14.108Z,37.10
2018-02-18T19:00:41.585Z,43.00
2018-02-18T19:03:09.055Z,42.37
2018-02-18T19:05:36.496Z,46.00
2018-02-18T19:08:03.944Z,41.30
2018-02-18T19:10:31.404Z,45.03
2018-02-18T19:12:58.856Z,45.53
2018-02-18T19:15:26.317Z,39.77
2018-02-18T19:17:53.773Z,43.63
2018-02-18T19:20:21.233Z,43.50
2018-02-18T19:22:48.673Z,44.40
2018-02-18T19:25:16.912Z,43.33
2018-02-18T19:27:44.361Z,48.83
2018-02-18T19:30:11.822Z,46.30
2018-02-18T19:32:39.277Z,42.07
2018-02-18T19:35:06.740Z,42.37
2018-02-18T19:37:34.188Z,53.17
2018-02-18T19:40:01.660Z,49.23
2018-02-18T19:42:29.120Z,45.23
2018-02-18T19:44:56.575Z,44.97
2018-02-18T19:47:24.034Z,43.63
2018-02-18T19:49:51.488Z,43.40
2018-02-18T19:52:18.937Z,45.43
2018-02-18T19:54:47.170Z,44.63
2018-02-18T19:57:14.623Z,43.07
2018-02-18T19:59:42.072Z,41.57
2018-02-18T20:02:09.532Z,44.83
2018-02-18T20:04:36.989Z,44.20
2018-02-18T20:07:04.449Z,41.57
2018-02-18T20:09:31.986Z,43.00
2018-02-18T20:12:00.216Z,44.60
2018-02-18T20:14:27.658Z,45.40
2018-02-18T20:16:55.113Z,45.67
2018-02-18T20:19:22.572Z,43.33
2018-02-18T20:21:50.034Z,43.93
2018-02-18T20:24:17.480Z,39.80
2018-02-18T20:26:45.708Z,44.63
2018-02-18T20:29:13.152Z,45.17
2018-02-18T20:31:40.611Z,45.53
2018-02-18T20:34:08.062Z,43.43
2018-02-18T20:36:35.538Z,42.53
2018-02-18T20:39:02.985Z,47.00
2018-02-18T20:41:30.433Z,46.13
2018-02-18T20:43:58.648Z,48.43
2018-02-18T20:46:26.104Z,43.97
2018-02-18T20:48:53.549Z,46.17
2018-02-18T20:51:21.015Z,50.30
2018-02-18T20:53:49.224Z,48.07
2018-02-18T20:56:16.681Z,51.03
2018-02-18T20:58:44.128Z,49.40
2018-02-18T21:01:11.597Z,47.37
2018-02-18T21:03:39.048Z,50.27
2018-02-18T21:06:06.523Z,49.93
2018-02-18T21:08:33.952Z,45.43
2018-02-18T21:11:02.181Z,46.93
2018-02-18T21:13:29.628Z,50.73
2018-02-18T21:15:57.082Z,47.97
2018-02-18T21:18:24.546Z,45.83
2018-02-18T21:20:52.108Z,52.13
2018-02-18T21:23:19.574Z,49.50
2018-02-18T21:25:47.041Z,47.47
2018-02-18T21:28:14.496Z,46.30
2018-02-18T21:30:41.953Z,43.50
2018-02-18T21:33:09.422Z,50.27
2018-02-18T21:35:36.881Z,51.13
2018-02-18T21:38:04.328Z,51.70
2018-02-18T21:40:31.783Z,49.67
2018-02-18T21:43:00.011Z,48.90
2018-02-18T21:45:27.453Z,49.57
2018-02-18T21:47:54.921Z,52.13
2018-02-18T21:50:22.377Z,54.70
2018-02-18T21:52:49.835Z,47.50
2018-02-18T21:55:17.295Z,46.70
2018-02-18T21:57:44.748Z,42.53
2018-02-18T22:00:12.200Z,44.43
2018-02-18T22:02:40.426Z,47.23
2018-02-18T22:05:07.877Z,43.67
2018-02-18T22:07:35.332Z,43.10
2018-02-18T22:10:02.784Z,43.50
2018-02-18T22:12:30.253Z,44.17
2018-02-18T22:14:57.712Z,42.13
2018-02-18T22:17:25.177Z,41.57
2018-02-18T22:19:52.637Z,40.57
2018-02-18T22:22:20.102Z,37.33
2018-02-18T22:24:47.561Z,37.87
2018-02-18T22:27:15.026Z,40.50
2018-02-18T22:29:42.478Z,44.20
2018-02-18T22:32:09.941Z,43.83
2018-02-18T22:34:38.166Z,46.77
2018-02-18T22:37:05.614Z,46.20
2018-02-18T22:39:33.074Z,47.43
2018-02-18T22:42:00.540Z,40.63
2018-02-18T22:44:28.008Z,37.67
2018-02-18T22:46:55.465Z,42.27
2018-02-18T22:49:23.689Z,41.90
2018-02-18T22:51:51.922Z,39.73
2018-02-18T22:54:19.372Z,39.97
2018-02-18T22:56:46.824Z,44.93
2018-02-18T22:59:14.320Z,41.10
2018-02-18T23:01:41.785Z,39.50
2018-02-18T23:04:09.229Z,41.70
2018-02-18T23:06:36.688Z,41.37
2018-02-18T23:09:04.148Z,42.03
2018-02-18T23:11:31.588Z,40.37
2018-02-18T23:13:59.820Z,43.23
2018-02-18T23:16:27.264Z,39.73
2018-02-18T23:18:54.728Z,40.13
2018-02-18T23:21:22.183Z,42.07
2018-02-18T23:23:49.631Z,42.33
2018-02-18T23:26:18.862Z,41.10
2018-02-18T23:28:46.336Z,40.53
2018-02-18T23:31:13.780Z,37.57
2018-02-18T23:33:41.240Z,40.37
2018-02-18T23:36:08.694Z,38.97
2018-02-18T23:38:36.148Z,41.00
2018-02-18T23:41:03.600Z,40.70
2018-02-18T23:43:31.820Z,41.00
2018-02-18T23:45:59.284Z,40.97
2018-02-18T23:48:26.737Z,40.00
2018-02-18T23:50:54.196Z,39.13
2018-02-18T23:53:21.682Z,38.40
2018-02-18T23:55:49.137Z,37.93
2018-02-18T23:58:16.589Z,38.43
